createdAt,value
2023-02-16T00:01:59.138Z,26.40
2023-02-16T00:04:31.277Z,26.63
2023-02-16T00:06:58.561Z,27.83
2023-02-16T00:09:26.007Z,31.50
2023-02-16T00:12:13.348Z,29.15
2023-02-16T00:14:40.790Z,37.05
2023-02-16T00:17:11.289Z,31.30
2023-02-16T00:19:40.638Z,28.75
2023-02-16T00:22:11.464Z,26.80
2023-02-16T00:24:41.566Z,27.08
2023-02-16T00:27:13.456Z,26.65
2023-02-16T00:29:40.434Z,26.15
2023-02-16T00:32:12.512Z,22.90
2023-02-16T00:34:43.313Z,26.15
2023-02-16T00:37:12.883Z,28.35
2023-02-16T00:39:42.642Z,24.05
2023-02-16T00:42:19.013Z,29.30
2023-02-16T00:44:49.336Z,31.52
2023-02-16T00:47:23.541Z,27.70
2023-02-16T00:49:53.336Z,25.10
2023-02-16T00:52:42.851Z,26.35
2023-02-16T00:55:15.548Z,27.42
2023-02-16T00:57:51.341Z,25.92
2023-02-16T01:00:25.371Z,27.85
2023-02-16T01:02:57.406Z,27.73
2023-02-16T01:05:25.047Z,25.95
2023-02-16T01:08:10.607Z,23.60
2023-02-16T01:10:57.417Z,26.65
2023-02-16T01:13:27.038Z,22.90
2023-02-16T01:15:55.623Z,23.58
2023-02-16T01:18:22.820Z,24.27
2023-02-16T01:21:25.788Z,28.73
2023-02-16T01:23:52.836Z,26.40
2023-02-16T01:26:20.659Z,32.67
2023-02-16T01:28:48.553Z,28.13
2023-02-16T01:31:16.798Z,26.17
2023-02-16T01:33:44.167Z,26.15
2023-02-16T01:36:22.555Z,26.20
2023-02-16T01:38:49.473Z,26.77
2023-02-16T01:41:25.185Z,31.35
2023-02-16T01:44:11.772Z,24.05
2023-02-16T01:47:07.904Z,23.50
2023-02-16T01:49:38.115Z,31.73
2023-02-16T01:52:14.336Z,25.27
2023-02-16T01:54:47.772Z,25.33
2023-02-16T01:57:14.955Z,21.95
2023-02-16T01:59:49.159Z,29.80
2023-02-16T02:02:29.054Z,27.90
2023-02-16T02:05:22.211Z,23.80
2023-02-16T02:08:02.772Z,24.70
2023-02-16T02:11:10.207Z,19.95
2023-02-16T02:13:54.693Z,20.45
2023-02-16T02:16:26.426Z,24.85
2023-02-16T02:18:53.427Z,25.63
2023-02-16T02:22:00.597Z,21.08
2023-02-16T02:24:46.938Z,26.58
2023-02-16T02:27:24.819Z,21.90
2023-02-16T02:30:06.486Z,23.25
2023-02-16T02:33:05.741Z,24.02
2023-02-16T02:35:55.393Z,26.75
2023-02-16T02:38:47.965Z,25.05
2023-02-16T02:41:57.394Z,27.98
2023-02-16T02:44:29.544Z,29.02
2023-02-16T02:46:57.084Z,25.67
2023-02-16T02:49:24.110Z,24.88
2023-02-16T02:51:51.989Z,24.00
2023-02-16T02:54:46.743Z,22.30
2023-02-16T02:57:53.574Z,25.02
2023-02-16T03:00:41.514Z,29.23
2023-02-16T03:03:30.589Z,25.83
2023-02-16T03:05:57.591Z,27.63
2023-02-16T03:08:27.354Z,26.48
2023-02-16T03:11:27.723Z,28.92
2023-02-16T03:14:00.103Z,30.52
2023-02-16T03:16:34.159Z,27.30
2023-02-16T03:19:21.142Z,31.02
2023-02-16T03:22:07.143Z,25.25
2023-02-16T03:24:53.003Z,31.13
2023-02-16T03:27:44.317Z,25.17
2023-02-16T03:30:15.038Z,28.52
2023-02-16T03:32:43.444Z,25.40
2023-02-16T03:35:12.845Z,25.15
2023-02-16T03:37:45.014Z,26.23
2023-02-16T03:40:30.332Z,27.20
2023-02-16T03:43:02.882Z,26.63
2023-02-16T03:45:31.611Z,25.80
2023-02-16T03:47:58.611Z,28.98
2023-02-16T03:50:27.486Z,25.00
2023-02-16T03:53:07.931Z,30.10
2023-02-16T03:55:44.153Z,23.67
2023-02-16T03:58:19.879Z,22.85
2023-02-16T04:00:47.459Z,24.25
2023-02-16T04:03:15.018Z,27.45
2023-02-16T04:05:42.236Z,29.25
2023-02-16T04:08:10.170Z,26.75
2023-02-16T04:10:38.642Z,30.95
2023-02-16T04:13:05.604Z,26.88
2023-02-16T04:15:33.191Z,36.72
2023-02-16T04:18:00.267Z,28.65
2023-02-16T04:20:32.051Z,26.02
2023-02-16T04:22:59.056Z,26.50
2023-02-16T04:25:26.012Z,27.77
2023-02-16T04:27:53.896Z,29.92
2023-02-16T04:30:23.900Z,26.40
2023-02-16T04:32:50.960Z,28.90
2023-02-16T04:35:18.604Z,25.95
2023-02-16T04:37:45.598Z,27.55
2023-02-16T04:40:14.123Z,24.85
2023-02-16T04:42:42.069Z,27.15
2023-02-16T04:45:10.171Z,25.23
2023-02-16T04:47:37.648Z,28.88
2023-02-16T04:50:05.479Z,26.77
2023-02-16T04:52:32.544Z,29.92
2023-02-16T04:54:59.617Z,26.15
2023-02-16T04:57:26.527Z,28.55
2023-02-16T04:59:53.534Z,31.02
2023-02-16T05:02:20.408Z,30.00
2023-02-16T05:04:47.936Z,26.40
2023-02-16T05:07:14.824Z,31.05
2023-02-16T05:09:41.865Z,32.22
2023-02-16T05:12:28.729Z,26.70
2023-02-16T05:14:55.694Z,34.05
2023-02-16T05:17:26.679Z,26.00
2023-02-16T05:19:59.371Z,28.60
2023-02-16T05:22:28.744Z,28.15
2023-02-16T05:24:55.722Z,24.95
2023-02-16T05:27:25.650Z,29.30
2023-02-16T05:29:52.695Z,29.70
2023-02-16T05:32:20.579Z,29.17
2023-02-16T05:34:48.109Z,34.38
2023-02-16T05:37:17.748Z,26.50
2023-02-16T05:39:45.275Z,25.05
2023-02-16T05:42:12.237Z,29.33
2023-02-16T05:44:39.440Z,25.38
2023-02-16T05:47:06.396Z,29.25
2023-02-16T05:49:33.261Z,26.60
2023-02-16T05:52:00.207Z,23.02
2023-02-16T05:54:28.107Z,26.60
2023-02-16T05:56:55.090Z,30.58
2023-02-16T05:59:22.692Z,25.95
2023-02-16T06:01:51.969Z,27.75
2023-02-16T06:04:20.364Z,29.77
2023-02-16T06:06:47.901Z,24.88
2023-02-16T06:09:15.306Z,26.58
2023-02-16T06:11:42.879Z,24.58
2023-02-16T06:14:13.169Z,30.02
2023-02-16T06:16:42.732Z,23.95
2023-02-16T06:19:09.796Z,27.45
2023-02-16T06:21:37.651Z,24.40
2023-02-16T06:24:05.217Z,22.77
2023-02-16T06:26:32.451Z,26.98
2023-02-16T06:28:59.463Z,24.75
2023-02-16T06:31:27.045Z,21.60
2023-02-16T06:33:56.861Z,29.00
2023-02-16T06:36:24.820Z,23.48
2023-02-16T06:38:52.231Z,31.00
2023-02-16T06:41:39.850Z,23.73
2023-02-16T06:44:12.524Z,24.80
2023-02-16T06:46:40.960Z,23.73
2023-02-16T06:49:08.450Z,25.33
2023-02-16T06:51:35.419Z,22.60
2023-02-16T06:54:02.359Z,28.60
2023-02-16T06:56:29.377Z,24.33
2023-02-16T06:58:56.346Z,24.13
2023-02-16T07:01:25.978Z,26.02
2023-02-16T07:03:55.457Z,25.98
2023-02-16T07:06:24.723Z,25.52
2023-02-16T07:08:52.265Z,26.10
2023-02-16T07:11:20.335Z,26.05
2023-02-16T07:13:50.205Z,26.23
2023-02-16T07:16:17.159Z,26.95
2023-02-16T07:18:47.686Z,27.70
2023-02-16T07:21:15.015Z,25.67
2023-02-16T07:23:41.980Z,25.77
2023-02-16T07:26:09.692Z,27.85
2023-02-16T07:28:36.668Z,23.27
2023-02-16T07:31:09.212Z,33.22
2023-02-16T07:33:36.902Z,28.73
2023-02-16T07:36:04.481Z,32.40
2023-02-16T07:38:31.573Z,25.65
2023-02-16T07:40:59.176Z,26.30
2023-02-16T07:43:26.361Z,27.48
2023-02-16T07:45:53.684Z,32.10
2023-02-16T07:48:20.970Z,26.15
2023-02-16T07:50:47.921Z,21.08
2023-02-16T07:53:14.947Z,30.75
2023-02-16T07:55:43.691Z,26.63
2023-02-16T07:58:10.901Z,29.95
2023-02-16T08:00:38.133Z,20.95
2023-02-16T08:03:05.411Z,30.45
2023-02-16T08:05:34.517Z,37.58
2023-02-16T08:08:01.446Z,29.10
2023-02-16T08:10:28.605Z,24.00
2023-02-16T08:12:55.521Z,30.70
2023-02-16T08:15:24.025Z,42.28
2023-02-16T08:17:51.189Z,33.35
2023-02-16T08:20:18.238Z,27.75
2023-02-16T08:22:45.336Z,28.45
2023-02-16T08:25:12.280Z,37.80
2023-02-16T08:27:41.611Z,29.55
2023-02-16T08:30:12.976Z,20.15
2023-02-16T08:32:40.843Z,28.15
2023-02-16T08:35:08.930Z,25.45
2023-02-16T08:37:38.961Z,31.13
2023-02-16T08:40:09.101Z,27.45
2023-02-16T08:42:37.154Z,27.30
2023-02-16T08:45:06.720Z,27.77
2023-02-16T08:47:34.960Z,23.30
2023-02-16T08:50:01.865Z,34.67
2023-02-16T08:52:29.168Z,27.92
2023-02-16T08:54:56.135Z,25.42
2023-02-16T08:57:23.084Z,24.38
2023-02-16T09:00:10.177Z,37.63
2023-02-16T09:02:37.596Z,26.40
2023-02-16T09:05:04.709Z,26.83
2023-02-16T09:07:35.195Z,24.42
2023-02-16T09:10:03.201Z,23.92
2023-02-16T09:12:31.121Z,25.90
2023-02-16T09:15:01.807Z,23.95
2023-02-16T09:17:29.272Z,26.95
2023-02-16T09:19:56.703Z,30.00
2023-02-16T09:22:23.785Z,23.42
2023-02-16T09:24:50.977Z,28.17
2023-02-16T09:27:18.522Z,33.70
2023-02-16T09:29:45.656Z,34.33
2023-02-16T09:32:15.557Z,26.85
2023-02-16T09:34:44.722Z,34.53
2023-02-16T09:37:11.668Z,33.88
2023-02-16T09:39:38.598Z,35.88
2023-02-16T09:42:20.822Z,43.25
2023-02-16T09:44:53.538Z,33.55
2023-02-16T09:47:31.527Z,29.65
2023-02-16T09:50:06.584Z,40.08
2023-02-16T09:52:44.605Z,30.20
2023-02-16T09:55:15.442Z,42.42
2023-02-16T09:57:55.765Z,30.77
2023-02-16T10:00:34.659Z,29.65
2023-02-16T10:03:01.635Z,30.83
2023-02-16T10:05:53.460Z,29.80
2023-02-16T10:08:31.588Z,27.45
2023-02-16T10:11:30.821Z,25.70
2023-02-16T10:14:03.069Z,34.95
2023-02-16T10:16:41.466Z,29.80
2023-02-16T10:19:36.130Z,37.88
2023-02-16T10:22:08.711Z,32.53
2023-02-16T10:24:47.073Z,35.85
2023-02-16T10:27:16.576Z,47.80
2023-02-16T10:29:43.714Z,32.85
2023-02-16T10:32:30.692Z,34.10
2023-02-16T10:35:22.593Z,36.22
2023-02-16T10:38:04.315Z,31.42
2023-02-16T10:41:03.744Z,33.78
2023-02-16T10:43:58.746Z,42.38
2023-02-16T10:46:31.206Z,42.50
2023-02-16T10:49:02.220Z,32.03
2023-02-16T10:51:37.416Z,36.13
2023-02-16T10:54:15.218Z,36.92
2023-02-16T10:56:52.577Z,32.30
2023-02-16T10:59:23.600Z,37.25
2023-02-16T11:01:57.660Z,34.85
2023-02-16T11:04:41.561Z,27.10
2023-02-16T11:07:23.439Z,40.05
2023-02-16T11:09:55.683Z,42.63
2023-02-16T11:12:28.527Z,31.92
2023-02-16T11:15:01.288Z,37.67
2023-02-16T11:17:28.336Z,35.67
2023-02-16T11:20:01.961Z,29.67
2023-02-16T11:22:38.256Z,42.85
2023-02-16T11:25:23.913Z,42.45
2023-02-16T11:28:02.170Z,29.67
2023-02-16T11:30:32.533Z,39.45
2023-02-16T11:33:05.710Z,52.45
2023-02-16T11:35:41.144Z,42.70
2023-02-16T11:38:26.931Z,35.35
2023-02-16T11:40:55.847Z,39.63
2023-02-16T11:43:28.657Z,39.92
2023-02-16T11:46:20.135Z,33.88
2023-02-16T11:48:47.923Z,29.77
2023-02-16T11:51:16.104Z,40.83
2023-02-16T11:53:44.507Z,37.72
2023-02-16T11:56:13.440Z,51.80
2023-02-16T11:58:41.007Z,40.53
2023-02-16T12:01:35.973Z,34.90
2023-02-16T12:04:22.422Z,32.88
2023-02-16T12:07:17.988Z,36.78
2023-02-16T12:10:10.857Z,30.90
2023-02-16T12:13:10.345Z,36.95
2023-02-16T12:15:47.055Z,33.42
2023-02-16T12:18:17.291Z,37.30
2023-02-16T12:21:07.003Z,41.55
2023-02-16T12:23:42.608Z,34.25
2023-02-16T12:26:10.050Z,36.33
2023-02-16T12:29:11.792Z,38.58
2023-02-16T12:32:16.254Z,33.72
2023-02-16T12:35:01.761Z,27.98
2023-02-16T12:37:37.948Z,32.28
2023-02-16T12:40:10.940Z,30.63
2023-02-16T12:43:12.745Z,29.02
2023-02-16T12:45:44.588Z,32.50
2023-02-16T12:48:11.408Z,31.52
2023-02-16T12:50:45.140Z,33.20
2023-02-16T12:53:22.546Z,36.30
2023-02-16T12:56:03.575Z,29.25
2023-02-16T12:58:35.337Z,25.02
2023-02-16T13:01:14.724Z,24.75
2023-02-16T13:04:02.229Z,23.95
2023-02-16T13:06:56.644Z,20.40
2023-02-16T13:09:41.698Z,17.47
2023-02-16T13:12:34.486Z,19.30
2023-02-16T13:15:30.847Z,19.05
2023-02-16T13:18:03.458Z,21.58
2023-02-16T13:20:30.677Z,22.13
2023-02-16T13:23:19.005Z,17.75
2023-02-16T13:26:05.628Z,14.52
2023-02-16T13:28:47.248Z,14.07
2023-02-16T13:31:29.477Z,16.23
2023-02-16T13:34:05.738Z,16.27
2023-02-16T13:36:47.831Z,14.05
2023-02-16T13:39:31.739Z,18.33
2023-02-16T13:42:20.408Z,21.77
2023-02-16T13:44:54.696Z,15.40
2023-02-16T13:47:42.207Z,27.65
2023-02-16T13:50:32.560Z,19.90
2023-02-16T13:53:16.729Z,9.45
2023-02-16T13:55:44.185Z,4.53
2023-02-16T13:58:14.198Z,8.52
2023-02-16T14:00:47.929Z,5.85
2023-02-16T14:03:17.731Z,8.33
2023-02-16T14:05:48.058Z,3.95
2023-02-16T14:08:22.507Z,7.20
2023-02-16T14:10:55.475Z,10.93
2023-02-16T14:13:39.511Z,10.63
2023-02-16T14:16:07.035Z,7.40
2023-02-16T14:18:45.216Z,7.30
2023-02-16T14:21:44.182Z,8.30
2023-02-16T14:24:24.592Z,13.70
2023-02-16T14:27:01.780Z,11.30
2023-02-16T14:30:01.691Z,8.32
2023-02-16T14:32:38.765Z,13.70
2023-02-16T14:35:05.617Z,12.85
2023-02-16T14:37:51.516Z,13.20
2023-02-16T14:40:22.656Z,13.35
2023-02-16T14:42:55.311Z,12.75
2023-02-16T14:45:41.094Z,14.70
2023-02-16T14:48:26.937Z,13.30
2023-02-16T14:51:31.308Z,19.58
2023-02-16T14:54:27.386Z,13.38
2023-02-16T14:57:02.370Z,13.25
2023-02-16T14:59:47.886Z,18.95
2023-02-16T15:02:31.510Z,9.20
2023-02-16T15:04:58.944Z,8.90
2023-02-16T15:07:28.868Z,15.45
2023-02-16T15:09:58.444Z,12.38
2023-02-16T15:12:40.675Z,11.70
2023-02-16T15:15:13.563Z,7.35
2023-02-16T15:17:50.427Z,13.02
2023-02-16T15:20:25.026Z,15.23
2023-02-16T15:23:03.858Z,11.00
2023-02-16T15:25:40.851Z,16.83
2023-02-16T15:28:10.828Z,13.05
2023-02-16T15:30:41.957Z,11.45
2023-02-16T15:33:24.206Z,8.73
2023-02-16T15:35:55.758Z,14.40
2023-02-16T15:38:25.760Z,14.65
2023-02-16T15:40:57.211Z,15.60
2023-02-16T15:43:36.000Z,10.88
2023-02-16T15:46:05.020Z,16.80
2023-02-16T15:48:34.186Z,10.05
2023-02-16T15:51:02.411Z,11.00
2023-02-16T15:53:35.409Z,8.50
2023-02-16T15:56:31.320Z,7.47
2023-02-16T15:59:01.716Z,7.60
2023-02-16T16:01:37.897Z,10.77
2023-02-16T16:04:26.779Z,12.07
2023-02-16T16:06:54.371Z,13.45
2023-02-16T16:09:29.855Z,11.77
2023-02-16T16:12:00.007Z,9.63
2023-02-16T16:14:27.939Z,8.93
2023-02-16T16:16:55.944Z,10.55
2023-02-16T16:19:42.800Z,17.00
2023-02-16T16:22:33.071Z,16.58
2023-02-16T16:25:00.590Z,11.23
2023-02-16T16:27:38.720Z,8.48
2023-02-16T16:30:20.779Z,8.23
2023-02-16T16:32:48.010Z,7.43
2023-02-16T16:35:40.784Z,12.63
2023-02-16T16:38:22.410Z,9.40
2023-02-16T16:40:53.195Z,6.50
2023-02-16T16:43:23.087Z,7.10
2023-02-16T16:45:57.860Z,7.93
2023-02-16T16:48:34.720Z,6.20
2023-02-16T16:51:31.796Z,6.80
2023-02-16T16:54:04.296Z,12.40
2023-02-16T16:56:38.247Z,14.68
2023-02-16T16:59:06.052Z,12.15
2023-02-16T17:01:33.092Z,10.98
2023-02-16T17:04:10.361Z,8.88
2023-02-16T17:06:37.279Z,9.68
2023-02-16T17:09:11.163Z,8.23
2023-02-16T17:11:39.071Z,12.07
2023-02-16T17:14:26.431Z,12.25
2023-02-16T17:16:56.469Z,10.13
2023-02-16T17:19:23.578Z,12.05
2023-02-16T17:21:50.637Z,13.90
2023-02-16T17:24:17.810Z,11.52
2023-02-16T17:26:44.784Z,12.32
2023-02-16T17:29:12.135Z,13.52
2023-02-16T17:31:39.367Z,10.93
2023-02-16T17:34:06.473Z,14.10
2023-02-16T17:36:34.494Z,12.82
2023-02-16T17:39:02.078Z,14.38
2023-02-16T17:41:30.044Z,12.23
2023-02-16T17:43:56.941Z,12.77
2023-02-16T17:46:25.000Z,15.73
2023-02-16T17:48:55.184Z,14.20
2023-02-16T17:51:24.903Z,13.73
2023-02-16T17:53:52.769Z,15.80
2023-02-16T17:56:22.444Z,16.20
2023-02-16T17:58:49.846Z,18.90
2023-02-16T18:01:19.270Z,17.55
2023-02-16T18:03:46.261Z,15.77
2023-02-16T18:06:25.496Z,20.75
2023-02-16T18:08:57.014Z,23.88
2023-02-16T18:11:24.994Z,15.68
2023-02-16T18:13:52.040Z,30.15
2023-02-16T18:16:21.878Z,40.10
2023-02-16T18:18:49.209Z,24.95
2023-02-16T18:21:16.381Z,27.35
2023-02-16T18:23:43.869Z,31.05
2023-02-16T18:26:15.144Z,27.20
2023-02-16T18:28:42.504Z,35.78
2023-02-16T18:31:10.501Z,28.50
2023-02-16T18:33:37.622Z,24.83
2023-02-16T18:36:05.243Z,33.47
2023-02-16T18:38:32.485Z,30.25
2023-02-16T18:40:59.716Z,25.77
2023-02-16T18:43:26.704Z,26.50
2023-02-16T18:45:53.684Z,29.88
2023-02-16T18:48:22.138Z,26.58
2023-02-16T18:50:49.365Z,25.35
2023-02-16T18:53:16.345Z,23.70
2023-02-16T18:55:43.301Z,27.65
2023-02-16T18:58:13.107Z,29.52
2023-02-16T19:00:41.559Z,25.13
2023-02-16T19:03:09.061Z,26.02
2023-02-16T19:05:36.106Z,25.20
2023-02-16T19:08:03.120Z,27.98
2023-02-16T19:10:30.358Z,22.02
2023-02-16T19:12:57.288Z,22.35
2023-02-16T19:15:24.304Z,25.80
2023-02-16T19:17:52.252Z,20.77
2023-02-16T19:20:19.453Z,21.77
2023-02-16T19:22:48.291Z,24.42
2023-02-16T19:25:15.346Z,25.58
2023-02-16T19:27:42.784Z,29.80
2023-02-16T19:30:10.305Z,26.17
2023-02-16T19:32:41.036Z,32.17
2023-02-16T19:35:11.934Z,23.95
2023-02-16T19:37:39.114Z,26.52
2023-02-16T19:40:08.713Z,27.10
2023-02-16T19:42:38.333Z,28.50
2023-02-16T19:45:06.279Z,27.83
2023-02-16T19:47:33.288Z,25.33
2023-02-16T19:50:00.588Z,31.58
2023-02-16T19:52:27.582Z,28.58
2023-02-16T19:54:54.496Z,29.02
2023-02-16T19:57:21.646Z,21.70
2023-02-16T19:59:48.534Z,21.48
2023-02-16T20:02:15.718Z,31.85
2023-02-16T20:04:44.420Z,23.50
2023-02-16T20:07:11.607Z,24.63
2023-02-16T20:09:39.260Z,29.92
2023-02-16T20:12:06.775Z,23.75
2023-02-16T20:14:33.816Z,21.38
2023-02-16T20:17:04.002Z,24.95
2023-02-16T20:19:30.935Z,29.48
2023-02-16T20:21:57.836Z,26.52
2023-02-16T20:24:24.847Z,23.67
2023-02-16T20:26:52.307Z,25.52
2023-02-16T20:29:21.105Z,23.45
2023-02-16T20:31:54.873Z,40.60
2023-02-16T20:34:23.254Z,29.47
2023-02-16T20:36:50.414Z,28.58
2023-02-16T20:39:18.907Z,27.60
2023-02-16T20:41:46.367Z,29.90
2023-02-16T20:44:13.559Z,29.75
2023-02-16T20:46:41.278Z,25.63
2023-02-16T20:49:09.450Z,31.48
2023-02-16T20:51:37.366Z,26.52
2023-02-16T20:54:05.325Z,30.20
2023-02-16T20:56:32.456Z,32.65
2023-02-16T20:59:00.477Z,29.05
2023-02-16T21:01:34.442Z,27.17
2023-02-16T21:04:01.572Z,33.03
2023-02-16T21:06:28.850Z,28.17
2023-02-16T21:08:56.619Z,34.00
2023-02-16T21:11:24.260Z,38.55
2023-02-16T21:13:51.316Z,26.08
2023-02-16T21:16:18.509Z,35.60
2023-02-16T21:18:45.511Z,35.13
2023-02-16T21:21:15.769Z,39.35
2023-02-16T21:23:48.171Z,33.58
2023-02-16T21:26:16.174Z,37.20
2023-02-16T21:28:43.112Z,32.50
2023-02-16T21:31:13.286Z,33.78
2023-02-16T21:33:40.971Z,32.17
2023-02-16T21:36:14.920Z,30.70
2023-02-16T21:38:42.165Z,29.13
2023-02-16T21:41:25.496Z,30.10
2023-02-16T21:43:54.060Z,34.95
2023-02-16T21:46:21.898Z,30.63
2023-02-16T21:48:50.236Z,38.47
2023-02-16T21:51:24.375Z,32.20
2023-02-16T21:53:51.515Z,38.72
2023-02-16T21:56:34.360Z,33.70
2023-02-16T21:59:02.066Z,39.22
2023-02-16T22:01:32.250Z,27.88
2023-02-16T22:04:00.813Z,28.83
2023-02-16T22:06:32.320Z,35.60
2023-02-16T22:09:00.177Z,34.60
2023-02-16T22:11:27.429Z,32.95
2023-02-16T22:13:56.078Z,34.83
2023-02-16T22:16:24.191Z,39.03
2023-02-16T22:19:05.014Z,28.10
2023-02-16T22:21:37.467Z,37.97
2023-02-16T22:24:05.400Z,30.55
2023-02-16T22:26:34.032Z,39.83
2023-02-16T22:29:03.984Z,31.08
2023-02-16T22:31:30.973Z,31.10
2023-02-16T22:34:01.159Z,32.00
2023-02-16T22:36:28.631Z,31.10
2023-02-16T22:38:55.925Z,33.10
2023-02-16T22:41:24.193Z,38.00
2023-02-16T22:43:59.814Z,42.78
2023-02-16T22:46:28.723Z,35.40
2023-02-16T22:48:58.639Z,39.83
2023-02-16T22:51:28.649Z,37.35
2023-02-16T22:53:57.749Z,36.47
2023-02-16T22:56:26.947Z,37.58
2023-02-16T22:58:57.331Z,46.78
2023-02-16T23:01:24.936Z,42.40
2023-02-16T23:03:54.548Z,40.97
2023-02-16T23:06:23.987Z,34.97
2023-02-16T23:09:00.681Z,39.42
2023-02-16T23:11:28.799Z,40.42
2023-02-16T23:13:56.174Z,43.85
2023-02-16T23:16:25.167Z,37.00
2023-02-16T23:18:52.520Z,39.63
2023-02-16T23:21:22.284Z,35.67
2023-02-16T23:23:50.784Z,37.97
2023-02-16T23:26:19.196Z,36.08
2023-02-16T23:28:50.998Z,39.67
2023-02-16T23:31:18.773Z,38.55
2023-02-16T23:33:45.926Z,42.28
2023-02-16T23:36:12.902Z,35.78
2023-02-16T23:38:40.067Z,36.63
2023-02-16T23:41:12.963Z,30.25
2023-02-16T23:43:39.969Z,37.53
2023-02-16T23:46:07.582Z,38.38
2023-02-16T23:48:34.816Z,41.10
2023-02-16T23:51:01.782Z,35.30
2023-02-16T23:53:29.198Z,34.38
2023-02-16T23:56:08.138Z,36.92
2023-02-16T23:58:42.926Z,34.90
